createdAt,value
2023-05-25T00:02:24.755Z,6.47
2023-05-25T00:04:52.190Z,7.03
2023-05-25T00:07:19.126Z,6.93
2023-05-25T00:09:46.649Z,5.82
2023-05-25T00:12:14.378Z,6.45
2023-05-25T00:14:41.004Z,6.10
2023-05-25T00:17:10.216Z,6.82
2023-05-25T00:19:38.094Z,6.93
2023-05-25T00:22:05.121Z,6.50
2023-05-25T00:24:31.944Z,6.50
2023-05-25T00:26:58.901Z,7.60
2023-05-25T00:29:26.186Z,7.03
2023-05-25T00:31:53.749Z,6.75
2023-05-25T00:34:20.890Z,6.45
2023-05-25T00:36:50.628Z,6.50
2023-05-25T00:39:19.282Z,6.60
2023-05-25T00:41:46.899Z,6.50
2023-05-25T00:44:14.962Z,6.82
2023-05-25T00:46:52.597Z,7.30
2023-05-25T00:49:23.092Z,6.57
2023-05-25T00:51:52.411Z,6.65
2023-05-25T00:54:19.647Z,6.85
2023-05-25T00:57:14.681Z,6.90
2023-05-25T00:59:48.433Z,6.37
2023-05-25T01:02:19.240Z,6.57
2023-05-25T01:04:52.733Z,6.65
2023-05-25T01:07:23.492Z,6.80
2023-05-25T01:10:06.991Z,6.57
2023-05-25T01:12:45.937Z,6.10
2023-05-25T01:15:12.697Z,7.07
2023-05-25T01:17:39.548Z,6.50
2023-05-25T01:20:11.386Z,7.07
2023-05-25T01:22:54.205Z,6.93
2023-05-25T01:25:27.663Z,6.75
2023-05-25T01:27:54.194Z,6.55
2023-05-25T01:30:25.334Z,6.87
2023-05-25T01:32:54.103Z,6.70
2023-05-25T01:35:22.065Z,6.20
2023-05-25T01:37:49.979Z,6.30
2023-05-25T01:40:16.665Z,6.45
2023-05-25T01:42:43.630Z,6.82
2023-05-25T01:45:12.746Z,6.25
2023-05-25T01:48:03.538Z,6.30
2023-05-25T01:50:30.145Z,5.97
2023-05-25T01:53:04.819Z,5.93
2023-05-25T01:55:36.892Z,6.47
2023-05-25T01:58:06.099Z,6.82
2023-05-25T02:00:33.354Z,6.22
2023-05-25T02:03:01.506Z,6.40
2023-05-25T02:05:28.306Z,6.05
2023-05-25T02:07:54.987Z,6.32
2023-05-25T02:10:21.652Z,6.22
2023-05-25T02:12:48.220Z,6.93
2023-05-25T02:15:16.143Z,6.40
2023-05-25T02:17:43.343Z,6.60
2023-05-25T02:20:11.759Z,6.82
2023-05-25T02:22:38.402Z,6.57
2023-05-25T02:25:05.810Z,6.75
2023-05-25T02:27:32.461Z,7.00
2023-05-25T02:29:59.015Z,7.10
2023-05-25T02:32:25.624Z,7.20
2023-05-25T02:34:52.285Z,6.93
2023-05-25T02:37:18.874Z,7.45
2023-05-25T02:39:45.412Z,7.68
2023-05-25T02:42:12.288Z,7.40
2023-05-25T02:44:38.831Z,8.18
2023-05-25T02:47:06.845Z,7.47
2023-05-25T02:49:34.445Z,8.40
2023-05-25T02:52:01.064Z,8.27
2023-05-25T02:54:27.639Z,8.43
2023-05-25T02:56:54.238Z,7.72
2023-05-25T02:59:21.609Z,7.65
2023-05-25T03:01:48.253Z,7.95
2023-05-25T03:04:14.932Z,8.20
2023-05-25T03:06:41.747Z,7.97
2023-05-25T03:09:09.687Z,7.55
2023-05-25T03:11:36.337Z,8.48
2023-05-25T03:14:03.011Z,9.82
2023-05-25T03:16:29.614Z,15.32
2023-05-25T03:18:56.226Z,11.30
2023-05-25T03:21:23.715Z,9.65
2023-05-25T03:23:50.278Z,8.27
2023-05-25T03:26:17.601Z,8.45
2023-05-25T03:28:44.312Z,8.13
2023-05-25T03:31:12.189Z,7.45
2023-05-25T03:33:38.802Z,7.07
2023-05-25T03:36:09.387Z,7.10
2023-05-25T03:38:38.818Z,7.30
2023-05-25T03:41:05.623Z,7.22
2023-05-25T03:43:32.284Z,7.78
2023-05-25T03:45:58.929Z,7.57
2023-05-25T03:48:25.874Z,7.03
2023-05-25T03:50:52.696Z,7.43
2023-05-25T03:53:19.306Z,7.43
2023-05-25T03:55:46.071Z,7.53
2023-05-25T03:58:13.375Z,8.23
2023-05-25T04:00:39.959Z,7.47
2023-05-25T04:03:07.037Z,7.87
2023-05-25T04:05:33.789Z,7.45
2023-05-25T04:08:00.362Z,7.72
2023-05-25T04:10:26.976Z,7.30
2023-05-25T04:12:56.658Z,7.03
2023-05-25T04:15:26.630Z,7.70
2023-05-25T04:17:53.360Z,8.00
2023-05-25T04:20:20.052Z,8.50
2023-05-25T04:22:47.663Z,8.52
2023-05-25T04:25:14.429Z,7.70
2023-05-25T04:27:42.275Z,8.15
2023-05-25T04:30:11.121Z,7.68
2023-05-25T04:32:38.578Z,8.18
2023-05-25T04:35:05.695Z,7.90
2023-05-25T04:37:33.365Z,8.68
2023-05-25T04:40:00.120Z,8.60
2023-05-25T04:42:26.969Z,8.18
2023-05-25T04:44:55.690Z,7.85
2023-05-25T04:47:24.954Z,8.23
2023-05-25T04:49:51.997Z,7.85
2023-05-25T04:52:18.663Z,7.87
2023-05-25T04:54:46.899Z,7.93
2023-05-25T04:57:13.576Z,7.50
2023-05-25T04:59:40.231Z,7.50
2023-05-25T05:02:06.857Z,7.32
2023-05-25T05:04:33.456Z,7.43
2023-05-25T05:07:00.145Z,7.28
2023-05-25T05:09:26.731Z,7.37
2023-05-25T05:11:53.338Z,6.93
2023-05-25T05:14:19.893Z,7.25
2023-05-25T05:16:48.148Z,6.43
2023-05-25T05:19:14.893Z,6.93
2023-05-25T05:21:41.497Z,5.97
2023-05-25T05:24:08.094Z,6.97
2023-05-25T05:26:48.258Z,6.70
2023-05-25T05:29:21.482Z,7.03
2023-05-25T05:31:48.259Z,6.72
2023-05-25T05:34:14.879Z,6.18
2023-05-25T05:36:56.034Z,7.05
2023-05-25T05:41:50.844Z,6.78
2023-05-25T05:44:17.433Z,7.03
2023-05-25T05:46:44.215Z,6.85
2023-05-25T05:49:10.847Z,6.85
2023-05-25T05:51:37.400Z,6.37
2023-05-25T05:54:04.564Z,5.97
2023-05-25T05:56:31.398Z,5.68
2023-05-25T05:58:58.107Z,6.35
2023-05-25T06:01:25.448Z,6.40
2023-05-25T06:03:54.341Z,5.68
2023-05-25T06:06:21.716Z,6.45
2023-05-25T06:08:48.629Z,6.68
2023-05-25T06:11:15.380Z,6.40
2023-05-25T06:13:42.029Z,6.90
2023-05-25T06:16:08.661Z,6.85
2023-05-25T06:18:35.320Z,6.07
2023-05-25T06:21:02.502Z,6.93
2023-05-25T06:23:29.055Z,5.82
2023-05-25T06:25:55.721Z,6.25
2023-05-25T06:28:22.292Z,5.97
2023-05-25T06:30:49.212Z,5.85
2023-05-25T06:33:16.236Z,5.85
2023-05-25T06:35:43.158Z,5.78
2023-05-25T06:38:11.530Z,6.25
2023-05-25T06:40:38.277Z,5.20
2023-05-25T06:43:04.877Z,5.60
2023-05-25T06:45:31.501Z,5.78
2023-05-25T06:47:58.139Z,6.10
2023-05-25T06:50:24.872Z,6.00
2023-05-25T06:52:51.592Z,6.32
2023-05-25T06:55:18.189Z,6.18
2023-05-25T06:57:44.824Z,6.65
2023-05-25T07:00:12.400Z,6.47
2023-05-25T07:02:39.556Z,6.82
2023-05-25T07:05:06.785Z,6.70
2023-05-25T07:07:33.764Z,5.78
2023-05-25T07:10:01.707Z,6.30
2023-05-25T07:12:28.317Z,7.35
2023-05-25T07:14:54.977Z,6.93
2023-05-25T07:17:22.331Z,6.50
2023-05-25T07:19:50.079Z,7.07
2023-05-25T07:22:19.006Z,6.95
2023-05-25T07:24:46.916Z,6.68
2023-05-25T07:27:14.335Z,7.20
2023-05-25T07:29:41.252Z,7.03
2023-05-25T07:32:07.948Z,6.60
2023-05-25T07:34:35.262Z,6.78
2023-05-25T07:37:01.896Z,6.60
2023-05-25T07:39:28.679Z,6.78
2023-05-25T07:41:55.359Z,6.93
2023-05-25T07:44:21.926Z,7.07
2023-05-25T07:46:48.540Z,6.97
2023-05-25T07:49:17.644Z,6.30
2023-05-25T07:51:47.539Z,6.93
2023-05-25T07:54:14.157Z,6.55
2023-05-25T07:56:40.944Z,6.65
2023-05-25T07:59:07.581Z,6.60
2023-05-25T08:01:34.191Z,6.40
2023-05-25T08:04:01.319Z,6.62
2023-05-25T08:06:28.046Z,6.68
2023-05-25T08:08:54.607Z,6.53
2023-05-25T08:11:27.690Z,6.62
2023-05-25T08:13:54.353Z,6.47
2023-05-25T08:16:21.260Z,6.72
2023-05-25T08:18:47.977Z,6.70
2023-05-25T08:21:14.582Z,6.82
2023-05-25T08:23:42.423Z,6.65
2023-05-25T08:26:26.092Z,6.75
2023-05-25T08:28:57.024Z,6.72
2023-05-25T08:31:23.655Z,7.05
2023-05-25T08:33:50.258Z,6.90
2023-05-25T08:36:16.815Z,7.50
2023-05-25T08:38:43.352Z,7.03
2023-05-25T08:41:12.847Z,7.53
2023-05-25T08:43:41.574Z,6.87
2023-05-25T08:46:09.189Z,6.07
2023-05-25T08:48:41.731Z,5.80
2023-05-25T08:51:11.944Z,6.87
2023-05-25T08:53:43.907Z,6.57
2023-05-25T08:56:16.092Z,6.27
2023-05-25T08:58:53.042Z,6.45
2023-05-25T09:01:22.584Z,5.60
2023-05-25T09:03:50.330Z,6.22
2023-05-25T09:06:17.695Z,5.60
2023-05-25T09:08:45.116Z,5.62
2023-05-25T09:11:16.573Z,5.43
2023-05-25T09:13:44.393Z,5.53
2023-05-25T09:16:11.592Z,5.15
2023-05-25T09:18:38.611Z,5.35
2023-05-25T09:21:05.364Z,5.72
2023-05-25T09:23:32.339Z,5.53
2023-05-25T09:26:01.199Z,5.53
2023-05-25T09:28:27.983Z,5.45
2023-05-25T09:30:56.096Z,5.55
2023-05-25T09:33:22.905Z,5.65
2023-05-25T09:35:49.840Z,5.47
2023-05-25T09:38:17.146Z,5.12
2023-05-25T09:40:44.827Z,5.32
2023-05-25T09:43:17.285Z,5.10
2023-05-25T09:45:49.028Z,5.55
2023-05-25T09:48:15.915Z,5.10
2023-05-25T09:50:43.381Z,4.68
2023-05-25T09:53:11.237Z,5.00
2023-05-25T09:55:51.968Z,5.20
2023-05-25T09:58:24.143Z,4.82
2023-05-25T10:00:55.530Z,5.65
2023-05-25T10:03:22.720Z,5.20
2023-05-25T10:05:49.892Z,5.12
2023-05-25T10:08:20.221Z,5.00
2023-05-25T10:10:50.023Z,5.70
2023-05-25T10:13:22.881Z,5.10
2023-05-25T10:15:54.182Z,4.85
2023-05-25T10:18:26.444Z,5.18
2023-05-25T10:21:04.757Z,4.50
2023-05-25T10:23:41.747Z,5.30
2023-05-25T10:26:09.952Z,4.97
2023-05-25T10:28:38.019Z,4.78
2023-05-25T10:31:05.862Z,5.00
2023-05-25T10:33:33.634Z,4.87
2023-05-25T10:36:10.157Z,5.20
2023-05-25T10:38:40.126Z,4.60
2023-05-25T10:41:09.989Z,4.80
2023-05-25T10:43:38.139Z,4.87
2023-05-25T10:46:06.321Z,5.32
2023-05-25T10:48:40.000Z,4.60
2023-05-25T10:51:08.319Z,4.60
2023-05-25T10:53:35.900Z,4.87
2023-05-25T10:56:04.592Z,4.60
2023-05-25T10:58:32.422Z,4.60
2023-05-25T11:01:13.618Z,4.32
2023-05-25T11:04:18.735Z,4.47
2023-05-25T11:06:48.245Z,4.10
2023-05-25T11:09:28.254Z,4.30
2023-05-25T11:12:03.461Z,4.53
2023-05-25T11:14:31.705Z,4.47
2023-05-25T11:17:11.924Z,4.10
2023-05-25T11:19:51.389Z,4.62
2023-05-25T11:22:21.248Z,4.10
2023-05-25T11:24:49.390Z,4.28
2023-05-25T11:27:21.833Z,4.05
2023-05-25T11:32:18.603Z,4.68
2023-05-25T11:34:47.087Z,4.30
2023-05-25T11:37:21.150Z,3.97
2023-05-25T11:39:52.102Z,4.43
2023-05-25T11:42:24.345Z,4.37
2023-05-25T11:44:51.338Z,5.00
2023-05-25T11:47:23.004Z,4.40
2023-05-25T11:49:50.048Z,4.45
2023-05-25T11:52:18.171Z,4.50
2023-05-25T11:54:45.885Z,4.28
2023-05-25T11:57:16.930Z,4.18
2023-05-25T11:59:49.954Z,4.07
2023-05-25T12:02:17.143Z,4.20
2023-05-25T12:05:02.309Z,3.87
2023-05-25T12:07:30.625Z,4.45
2023-05-25T12:10:10.365Z,4.05
2023-05-25T12:12:51.746Z,4.05
2023-05-25T12:15:33.955Z,4.32
2023-05-25T12:18:01.133Z,4.05
2023-05-25T12:20:27.945Z,3.80
2023-05-25T12:22:54.660Z,3.72
2023-05-25T12:25:46.609Z,4.10
2023-05-25T14:00:24.368Z,3.70
2023-05-25T14:02:51.130Z,3.83
2023-05-25T14:05:19.770Z,3.90
2023-05-25T14:07:47.218Z,3.80
2023-05-25T14:10:14.009Z,4.00
2023-05-25T14:12:41.042Z,3.80
2023-05-25T14:15:38.718Z,3.83
2023-05-25T14:18:42.449Z,3.78
2023-05-25T14:21:11.079Z,3.87
2023-05-25T14:23:37.633Z,3.85
2023-05-25T14:26:04.591Z,4.37
2023-05-25T14:28:31.222Z,3.55
2023-05-25T14:30:57.878Z,3.55
2023-05-25T14:33:24.467Z,3.85
2023-05-25T14:35:51.086Z,3.95
2023-05-25T14:38:17.649Z,3.50
2023-05-25T14:41:00.140Z,3.30
2023-05-25T14:43:26.778Z,3.28
2023-05-25T14:45:53.308Z,3.58
2023-05-25T14:48:23.354Z,3.42
2023-05-25T14:50:50.009Z,3.90
2023-05-25T14:53:16.770Z,3.70
2023-05-25T14:55:43.817Z,3.70
2023-05-25T14:58:11.263Z,3.95
2023-05-25T15:00:37.896Z,3.67
2023-05-25T15:03:04.738Z,3.72
2023-05-25T15:05:31.389Z,3.70
2023-05-25T15:07:58.970Z,3.85
2023-05-25T15:10:25.655Z,4.18
2023-05-25T15:12:52.287Z,4.22
2023-05-25T15:15:18.835Z,3.65
2023-05-25T15:17:45.458Z,4.05
2023-05-25T15:20:12.042Z,4.18
2023-05-25T15:22:38.629Z,3.70
2023-05-25T15:25:05.437Z,3.70
2023-05-25T15:27:32.288Z,3.70
2023-05-25T15:29:58.956Z,3.60
2023-05-25T15:32:25.974Z,3.97
2023-05-25T15:34:52.627Z,4.18
2023-05-25T15:37:19.269Z,4.05
2023-05-25T15:39:45.828Z,3.67
2023-05-25T15:42:12.557Z,3.78
2023-05-25T15:44:39.110Z,3.75
2023-05-25T15:47:06.614Z,3.72
2023-05-25T15:49:36.695Z,3.85
2023-05-25T15:52:03.448Z,3.25
2023-05-25T15:54:30.026Z,3.30
2023-05-25T15:56:56.592Z,3.17
2023-05-25T15:59:23.151Z,3.65
2023-05-25T16:01:49.847Z,3.30
2023-05-25T16:04:16.633Z,3.50
2023-05-25T16:06:43.312Z,3.47
2023-05-25T16:09:09.865Z,3.42
2023-05-25T16:11:36.556Z,3.30
2023-05-25T16:14:03.170Z,3.35
2023-05-25T16:16:29.874Z,3.62
2023-05-25T16:18:56.497Z,3.37
2023-05-25T16:21:23.172Z,3.10
2023-05-25T16:23:49.913Z,3.30
2023-05-25T16:26:16.600Z,3.70
2023-05-25T16:28:43.186Z,3.10
2023-05-25T16:31:11.089Z,3.53
2023-05-25T16:33:39.119Z,3.62
2023-05-25T16:36:06.064Z,3.83
2023-05-25T16:38:32.649Z,3.47
2023-05-25T16:40:59.206Z,3.25
2023-05-25T16:43:26.801Z,3.40
2023-05-25T16:45:53.437Z,3.47
2023-05-25T16:48:22.426Z,4.00
2023-05-25T16:50:49.773Z,4.20
2023-05-25T16:53:16.306Z,3.95
2023-05-25T16:55:43.655Z,4.03
2023-05-25T16:58:10.454Z,4.80
2023-05-25T17:00:37.054Z,4.47
2023-05-25T17:03:03.751Z,4.70
2023-05-25T17:05:30.630Z,3.92
2023-05-25T17:07:57.224Z,3.47
2023-05-25T17:10:23.842Z,3.92
2023-05-25T17:12:50.597Z,4.10
2023-05-25T17:15:17.304Z,4.50
2023-05-25T17:17:44.164Z,3.50
2023-05-25T17:20:11.641Z,4.12
2023-05-25T17:22:38.579Z,4.40
2023-05-25T17:25:06.326Z,3.85
2023-05-25T17:27:32.921Z,4.45
2023-05-25T17:29:59.514Z,3.87
2023-05-25T17:32:26.334Z,4.10
2023-05-25T17:34:53.074Z,4.25
2023-05-25T17:37:21.123Z,4.28
2023-05-25T17:39:47.884Z,4.00
2023-05-25T17:42:14.538Z,4.28
2023-05-25T17:44:42.418Z,4.57
2023-05-25T17:47:10.977Z,4.60
2023-05-25T17:49:38.082Z,4.45
2023-05-25T17:52:04.981Z,4.45
2023-05-25T17:54:31.526Z,4.85
2023-05-25T17:56:58.131Z,4.53
2023-05-25T17:59:24.695Z,4.62
2023-05-25T18:01:51.864Z,4.53
2023-05-25T18:04:19.714Z,4.87
2023-05-25T18:06:47.349Z,4.32
2023-05-25T18:09:14.060Z,4.70
2023-05-25T18:11:43.001Z,5.00
2023-05-25T18:14:09.560Z,4.53
2023-05-25T18:16:44.509Z,5.10
2023-05-25T18:19:11.347Z,4.97
2023-05-25T18:21:38.548Z,5.00
2023-05-25T18:24:07.395Z,4.87
2023-05-25T18:26:34.070Z,5.03
2023-05-25T18:29:00.766Z,5.60
2023-05-25T18:31:30.637Z,5.43
2023-05-25T18:33:57.285Z,5.45
2023-05-25T18:36:23.966Z,5.32
2023-05-25T18:38:50.546Z,5.90
2023-05-25T18:41:19.166Z,5.60
2023-05-25T18:43:49.989Z,5.87
2023-05-25T18:46:16.920Z,5.47
2023-05-25T18:48:43.619Z,6.05
2023-05-25T18:51:10.493Z,5.75
2023-05-25T18:53:37.161Z,5.87
2023-05-25T18:56:03.735Z,5.37
2023-05-25T18:58:35.499Z,5.20
2023-05-25T19:01:02.133Z,5.87
2023-05-25T19:03:28.797Z,6.45
2023-05-25T19:05:55.468Z,5.62
2023-05-25T19:08:23.506Z,5.72
2023-05-25T19:10:51.030Z,5.75
2023-05-25T19:13:17.654Z,6.00
2023-05-25T19:15:44.558Z,5.90
2023-05-25T19:18:11.524Z,6.07
2023-05-25T19:20:38.376Z,6.40
2023-05-25T19:23:04.977Z,5.60
2023-05-25T19:25:31.635Z,5.50
2023-05-25T19:27:59.635Z,6.00
2023-05-25T19:30:26.269Z,5.72
2023-05-25T19:32:52.876Z,6.28
2023-05-25T19:35:19.561Z,5.82
2023-05-25T19:37:46.312Z,5.97
2023-05-25T19:40:13.574Z,6.28
2023-05-25T19:42:40.193Z,6.30
2023-05-25T19:45:07.101Z,6.35
2023-05-25T19:47:33.855Z,6.10
2023-05-25T19:50:02.150Z,6.10
2023-05-25T19:52:28.744Z,6.32
2023-05-25T19:54:57.181Z,6.35
2023-05-25T19:57:23.876Z,5.95
2023-05-25T19:59:51.113Z,6.10
2023-05-25T20:02:17.704Z,6.45
2023-05-25T20:04:47.280Z,6.53
2023-05-25T20:07:14.194Z,6.05
2023-05-25T20:09:41.439Z,6.55
2023-05-25T20:12:09.441Z,6.65
2023-05-25T20:14:36.013Z,6.80
2023-05-25T20:17:02.745Z,6.80
2023-05-25T20:19:29.767Z,6.30
2023-05-25T20:22:11.448Z,6.43
2023-05-25T20:24:38.114Z,6.30
2023-05-25T20:27:06.075Z,6.30
2023-05-25T20:29:33.654Z,6.25
2023-05-25T20:32:00.739Z,6.50
2023-05-25T20:34:27.372Z,7.03
2023-05-25T20:36:53.974Z,6.00
2023-05-25T20:39:20.581Z,6.12
2023-05-25T20:41:47.155Z,6.15
2023-05-25T20:44:14.122Z,6.60
2023-05-25T20:46:40.838Z,6.50
2023-05-25T20:49:07.450Z,6.32
2023-05-25T20:51:33.975Z,6.43
2023-05-25T20:54:00.833Z,6.15
2023-05-25T20:56:27.710Z,5.95
2023-05-25T20:58:54.376Z,6.53
2023-05-25T21:01:20.955Z,6.75
2023-05-25T21:03:47.824Z,6.15
2023-05-25T21:06:14.537Z,6.00
2023-05-25T21:08:41.145Z,6.70
2023-05-25T21:11:07.736Z,6.30
2023-05-25T21:13:34.336Z,5.30
2023-05-25T21:16:01.247Z,6.12
2023-05-25T21:18:27.817Z,6.60
2023-05-25T21:20:54.745Z,7.28
2023-05-25T21:23:21.361Z,6.53
2023-05-25T21:25:48.168Z,6.57
2023-05-25T21:28:15.150Z,6.53
2023-05-25T21:30:41.707Z,6.28
2023-05-25T21:33:08.500Z,6.37
2023-05-25T21:35:35.211Z,6.22
2023-05-25T21:38:01.802Z,7.30
2023-05-25T21:40:28.663Z,5.72
2023-05-25T21:42:55.323Z,6.10
2023-05-25T21:45:21.886Z,6.37
2023-05-25T21:47:48.626Z,6.65
2023-05-25T21:50:15.419Z,6.65
2023-05-25T21:52:42.174Z,6.00
2023-05-25T21:55:09.168Z,6.25
2023-05-25T21:57:36.303Z,6.60
2023-05-25T22:00:03.789Z,6.12
2023-05-25T22:02:30.604Z,6.40
2023-05-25T22:04:57.331Z,5.72
2023-05-25T22:07:23.941Z,6.30
2023-05-25T22:09:50.649Z,6.20
2023-05-25T22:12:17.257Z,7.00
2023-05-25T22:14:43.808Z,6.78
2023-05-25T22:17:10.509Z,6.35
2023-05-25T22:19:37.148Z,5.97
2023-05-25T22:22:03.864Z,6.30
2023-05-25T22:24:30.521Z,6.82
2023-05-25T22:26:57.061Z,6.60
2023-05-25T22:29:23.663Z,7.18
2023-05-25T22:31:50.734Z,6.87
2023-05-25T22:34:17.402Z,6.68
2023-05-25T22:36:44.009Z,6.70
2023-05-25T22:39:10.746Z,6.57
2023-05-25T22:41:37.360Z,6.50
2023-05-25T22:44:03.987Z,6.82
2023-05-25T22:46:30.683Z,6.68
2023-05-25T22:48:57.294Z,6.57
2023-05-25T22:51:23.859Z,6.45
2023-05-25T22:53:50.446Z,6.47
2023-05-25T22:56:17.059Z,6.60
2023-05-25T22:58:43.668Z,6.62
2023-05-25T23:01:10.365Z,7.05
2023-05-25T23:03:37.071Z,6.60
2023-05-25T23:06:03.776Z,6.95
2023-05-25T23:08:30.538Z,6.43
2023-05-25T23:10:57.120Z,7.03
2023-05-25T23:13:24.281Z,7.07
2023-05-25T23:15:51.019Z,6.90
2023-05-25T23:18:17.674Z,6.80
2023-05-25T23:20:44.965Z,7.00
2023-05-25T23:23:11.951Z,8.07
2023-05-25T23:25:38.556Z,7.30
2023-05-25T23:28:05.161Z,7.32
2023-05-25T23:30:31.734Z,7.10
2023-05-25T23:32:58.388Z,7.53
2023-05-25T23:35:25.085Z,6.78
2023-05-25T23:37:52.152Z,6.93
2023-05-25T23:40:18.980Z,6.85
2023-05-25T23:42:45.934Z,7.22
2023-05-25T23:45:13.633Z,7.20
2023-05-25T23:47:40.753Z,7.18
2023-05-25T23:50:07.513Z,7.03
2023-05-25T23:52:34.165Z,7.80
2023-05-25T23:55:00.740Z,7.22
2023-05-25T23:57:27.335Z,7.43
2023-05-25T23:59:53.899Z,8.02
